Aeroporto :







RITROVATECI SU...

 
LOGIN :

Iscrizione | Disclaimer

   EN    FR    IT 

 









Sommario :    VFR   VFR Marginale   IFR   IFR Intensivo   IFR Molto Intensivo
Visibilità : 
Base nubi : 
>= 8 km
>= 3000ft
5 / 8 km
1000 / 3000 ft
1500m / 5 km
500 / 1000 ft
800 / 1500m
200 / 500 ft
< 800m
< 200 ft
Simboli :   Temporali  Nebbia  Neve Forte  Precipitazioni Forti  Vento > 20 kt







- Altitudine del aeroporto : 148 ft


KLWM - Lawrence Municipal

ULTIMO METAR :
  • 200554Z AUTO 18007G16KT 10SM OVC013 19/17 A2978 RMK AO2 RAE05B25E34 SLP083 P0000 60003 T01890167 10211 20183 56013

METARs OBSOLETI :
  • 200511Z AUTO 17008G18KT 140V210 9SM BKN014 OVC025 19/17 A2978 RMK AO2 RAE05 P0000 T01890172
  • 200454Z AUTO 18006KT 5SM -RA BR FEW012 BKN017 OVC038 19/17 A2979 RMK AO2 RAB36 SLP087 P0003 T01890172 402500078
  • 200354Z AUTO VRB06G17KT 10SM OVC016 19/17 A2980 RMK AO2 SLP091 T01940167
  • 200336Z AUTO 19009G16KT 10SM OVC016 19/17 A2980 RMK AO2 T01940167

TAF N/A
FIR KZBW / America del Nord



MetMap, La meteo Aeronautica in un colpo d'occhio ! - Copyright ORBIFLY Dicembre 2007 - Disclaimer

ORBIFLY MET'MAP TEAM :

Programmazione e sviluppo : Alexandra Zaïnal
Concezione e sviluppo : Baudouin d'Aumeries
Co-Programmazione e sviluppo : Marc-Olivier Méhu
Supporto tecnico e logistico : Manuel Goepfert
Aiuto per la traduzione : Arnaldo La Scala

Contatto : metmap@orbifly.com




FONTI E CREDITI :

   NOAA